Tiempo atmosférico en la estación meteorológica de Aroche, Huelva (260 m.)

Fecha
DESCASC
Temp. máxima en grados centígrados (hora)
DESCASC
Temp. mínima en grados centígrados (hora)
DESCASC
Temp. media en grados centígrados
DESCASC
Racha de viento máxima en m/sg (hora)
DESCASC
Velocidad máxima media en intervalos de 10 minutos(hora)
DESCASC
Precipitaciones diarias en mm
DESCASC
Precipitaciones de 00:00 a 06:00 en mm
DESCASC
Precipitaciones de 06:00 a 12:00 en mm
DESCASC
Precipitaciones de 12:00 a 18:00 en mm
DESCASC
Precipitaciones de 18:00 a 24:00 en mm
DESCASC
19-10-2017 20.7 (16:10) 13.5 (05:50) 17.1 6.67 (15:50) 3.61 (14:50) 0 0 0 0 0
18-10-2017 19.6 (16:10) 14 (07:20) 16.8 8.33 (17:50) 5 (17:50) 5.6 2.8 1 0.2 1.6
17-10-2017 22.9 (16:20) 16.5 (23:30) 19.7 8.89 (05:50) 5 (05:50) 17.6 0 17.2 0 0.4
16-10-2017 27.4 (14:10) 11.4 (05:40) 19.4 9.72 (14:20) 5.83 (14:30) 0 0 0 0 0
15-10-2017 34.2 (15:30) 14.5 (00:00) 24.4 11.39 (14:20) 6.11 (15:40) 0 0 0 0 0
14-10-2017 36.1 (15:30) 16.2 (00:00) 26.1 6.94 (16:10) 3.33 (18:30) 0 0 0 0 0
13-10-2017 32.5 (15:30) 10.9 (00:00) 21.7 7.5 (17:30) 4.72 (12:10) 0 0 0 0 0
12-10-2017 32.1 (15:30) 13.6 (00:00) 22.8 10.28 (16:30) 6.11 (16:50) 0 0 0 0 0
11-10-2017 33.6 (17:40) 10.1 (00:00) 21.8 6.11 (14:10) 2.78 (14:10) 0 0 0 0 0
10-10-2017 32.2 (15:10) 10.7 (00:00) 21.5 7.22 (16:10) 4.44 (17:00) 0 0 0 0 0
09-10-2017 32.7 (15:50) 9.7 (00:00) 21.2 8.89 (15:50) 4.44 (17:30) 0 0 0 0 0
08-10-2017 31.7 (17:00) 11.9 (00:00) 21.8 6.67 (15:40) 3.89 (15:00) 0 0 0 0 0
07-10-2017 35.1 (14:50) 11.2 (00:00) 23.1 9.72 (18:00) 5.56 (18:30) 0 0 0 0 0
06-10-2017 35.1 (16:40) 13.3 (00:00) 24.2 7.22 (15:20) 4.17 (14:50) 0 0 0 0 0
05-10-2017 33.3 (15:20) 13.5 (00:00) 23.4 7.5 (16:40) 4.17 (18:00) 0 0 0 0 0
04-10-2017 34.2 (16:20) 13.6 (00:00) 23.9 7.22 (13:10) 3.89 (18:10) 0 0 0 0 0
03-10-2017 35.1 (15:40) 13.1 (00:00) 24.1 7.22 (19:00) 3.89 (19:00) 0 0 0 0 0
02-10-2017 33.8 (16:40) 15.4 (00:00) 24.6 9.72 (16:50) 5.56 (15:00) 0 0 0 0 0
01-10-2017 32.5 (16:00) 10.1 (00:00) 21.3 9.17 (20:00) 5.28 (20:10) 0 0 0 0 0
30-09-2017 29.9 (16:40) 11.8 (00:00) 20.8 7.78 (21:30) 4.17 (14:40) 0 0 0 0 0
29-09-2017 32.6 (17:30) 12.8 (00:00) 22.7 6.67 (15:40) 3.33 (16:00) 0 0 0 0 0
28-09-2017 31.7 (16:10) 17.1 (00:00) 24.4 5.56 (15:50) 2.78 (15:40) 0 0 0 0 0
27-09-2017 28.1 (19:00) 11.6 (00:00) 19.9 7.22 (12:10) 4.44 (12:10) 0 0 0 0 0
26-09-2017 30.4 (16:10) 5.6 (00:00) 18 7.22 (16:10) 4.72 (17:20) 0 0 0 0 0
25-09-2017 29.3 (16:40) 9.9 (00:00) 19.6 8.33 (15:00) 4.44 (18:10) 0 0 0 0 0
24-09-2017 31.8 (15:40) 9.9 (00:00) 20.8 6.94 (16:00) 3.89 (16:00) 0 0 0 0 0
23-09-2017 31.9 (17:30) 9.8 (00:00) 20.8 7.22 (18:10) 3.89 (18:10) 0 0 0 0 0
22-09-2017 30.1 (17:10) 9.7 (00:00) 19.9 7.22 (15:50) 3.33 (17:30) 0 0 0 0 0
21-09-2017 29.8 (15:20) 9.8 (00:00) 19.8 8.06 (19:20) 4.72 (17:10) 0 0 0 0 0
20-09-2017 32.1 (16:30) 9 (00:00) 20.5 7.22 (14:20) 4.44 (19:30) 0 0 0 0 0

Gráficas

Temp. máximas Temp. mínimas Temp. medias Precipitaciones Rachas de viento máximas Velocidades máximas media en intervalos de 10 minutos

Datos horarios

Fecha y hora oficial Temperatura (ºC) Velocidad del viento (km/h) Dirección del viento Racha (km/h) Dirección de racha Precipitación (mm) Presión (hPa) Tendencia (hPa) Humedad (%)
2017-10-19 23:00:00 16 2 Noroeste 5 Nordeste 0 -- -- 91
2017-10-19 22:00:00 16.8 0 Calma 5 Noroeste 0 -- -- 88
2017-10-19 21:00:00 17.6 3 Sudoeste 6 Oeste 0 -- -- 84
2017-10-19 20:00:00 18.5 4 Oeste 15 Noroeste 0 -- -- 78
2017-10-19 19:00:00 19.3 10 Oeste 22 Oeste 0 -- -- 70
2017-10-19 18:00:00 19.9 10 Oeste 18 Oeste 0 -- -- 67
2017-10-19 17:00:00 20 10 Noroeste 23 Oeste 0 -- -- 64
2017-10-19 16:00:00 20.3 10 Noroeste 24 Oeste 0 -- -- 63
2017-10-19 15:00:00 18.8 10 Noroeste 21 Oeste 0 -- -- 69
2017-10-19 14:00:00 19.1 9 Noroeste 24 Oeste 0 -- -- 70
2017-10-19 13:00:00 18.1 10 Oeste 18 Oeste 0 -- -- 77
2017-10-19 12:00:00 17.4 6 Oeste 11 Sudoeste 0 -- -- 81
2017-10-19 11:00:00 15.5 2 Norte 4 Norte 0 -- -- 91
2017-10-19 10:00:00 14.4 2 Noroeste 4 Noroeste 0 -- -- 97
2017-10-19 09:00:00 14 2 Sudoeste 3 Sudoeste 0 -- -- 98
2017-10-19 08:00:00 13.7 0 Calma 3 Oeste 0 -- -- 97
2017-10-19 07:00:00 13.6 0 Calma 5 Sur 0 -- -- 97
2017-10-19 06:00:00 13.5 0 Calma 5 Norte 0 -- -- 97
2017-10-19 05:00:00 13.8 0 Calma 12 Norte 0 -- -- 95
2017-10-19 04:00:00 13.6 0 Calma 5 Norte 0 -- -- 95
2017-10-19 03:00:00 14 0 Calma 4 Este 0 -- -- 95
2017-10-19 02:00:00 14.2 3 Nordeste 8 Este 0 -- -- 95
2017-10-19 01:00:00 14.5 5 Sudeste 11 Sudeste 0 -- -- 95
2017-10-19 00:00:00 14.8 0 Calma 7 Oeste 0.4 -- -- 95
2017-10-18 23:00:00 15 2 Sur 6 Sudoeste 0.4 -- -- 92
2017-10-18 22:00:00 15.4 4 Oeste 15 Oeste 0.8 -- -- 90
2017-10-18 21:00:00 16.7 6 Oeste 14 Oeste 0 -- -- 81
2017-10-18 20:00:00 17.6 8 Oeste 15 Oeste 0 -- -- 73
2017-10-18 19:00:00 18.5 8 Oeste 22 Sudoeste 0 -- -- 66
2017-10-18 18:00:00 18.7 13 Oeste 30 Oeste 0 -- -- 62
2017-10-18 17:00:00 19.2 14 Oeste 26 Sudoeste 0 -- -- 63
2017-10-18 16:00:00 19.3 10 Oeste 22 Sudoeste 0 -- -- 69
2017-10-18 15:00:00 16.7 10 Noroeste 21 Oeste 0.2 -- -- 86
2017-10-18 14:00:00 16.7 10 Oeste 20 Oeste 0 -- -- 83
2017-10-18 13:00:00 15.9 9 Oeste 17 Oeste 0 -- -- 87
2017-10-18 12:00:00 15.3 6 Sudoeste 13 Oeste 0.2 -- -- 90
2017-10-18 11:00:00 15.2 4 Oeste 9 Oeste 0.6 -- -- 96
2017-10-18 10:00:00 14.8 0 Calma 4 Nordeste 0 -- -- 97
2017-10-18 09:00:00 14.3 0 Calma 5 Oeste 0 -- -- 96
2017-10-18 08:00:00 14.2 0 Calma 5 Noroeste 0 -- -- 96
2017-10-18 07:00:00 14.1 0 Calma 5 Noroeste 0.2 -- -- 96
2017-10-18 06:00:00 14.2 0 Calma 4 Este 1.4 -- -- 96
2017-10-18 05:00:00 14.3 0 Calma 8 Este 0.2 -- -- 95
2017-10-18 04:00:00 14.6 3 Este 7 Este 0.8 -- -- 95
2017-10-18 03:00:00 14.9 3 Oeste 11 Oeste 0.4 -- -- 94
2017-10-18 02:00:00 15.3 3 Este 7 Oeste 0 -- -- 94
2017-10-18 01:00:00 15.9 3 Nordeste 4 Nordeste 0 -- -- 93
2017-10-18 00:00:00 16.5 0 Calma 3 Norte 0 -- -- 94
2017-10-17 23:00:00 16.9 0 Calma 10 Este 0 -- -- 92
2017-10-17 22:00:00 17.3 6 Este 9 Este 0 -- -- 93
2017-10-17 21:00:00 18 4 Sudeste 13 Este 0.4 -- -- 87
2017-10-17 20:00:00 18.7 8 Este 16 Sur 0 -- -- 78
2017-10-17 19:00:00 21.9 6 Oeste 23 Oeste 0 -- -- 55
2017-10-17 18:00:00 22.1 10 Oeste 18 Oeste 0 -- -- 58
2017-10-17 17:00:00 21.9 9 Oeste 21 Sudoeste 0 -- -- 58
2017-10-17 16:00:00 21.6 12 Oeste 22 Oeste 0 -- -- 59
2017-10-17 15:00:00 21.2 7 Oeste 15 Oeste 0 -- -- 64
2017-10-17 14:00:00 19.7 0 Calma 8 Sudoeste 0 -- -- 74
2017-10-17 13:00:00 18.4 5 Oeste 9 Sur 0 -- -- 84
2017-10-17 12:00:00 17.4 5 Oeste 9 Sudoeste 0 -- -- 90
2017-10-17 11:00:00 17.5 2 Oeste 8 Oeste 0.2 -- -- 94
2017-10-17 10:00:00 17.4 5 Oeste 10 Oeste 0.2 -- -- 95
2017-10-17 09:00:00 17 0 Calma 8 Norte 3 -- -- 96
2017-10-17 08:00:00 16.9 3 Sur 26 Oeste 13.8 -- -- 92
2017-10-17 07:00:00 19.8 10 Sur 24 Sudeste 0 -- -- 84
2017-10-17 06:00:00 20 16 Sur 32 Sudeste 0 -- -- 77
2017-10-17 05:00:00 20 15 Sur 28 Sur 0 -- -- 72
2017-10-17 04:00:00 20.2 12 Sur 22 Sur 0 -- -- 68
2017-10-17 03:00:00 20.8 10 Sur 21 Sur 0 -- -- 62
2017-10-17 02:00:00 20.9 4 Sur 20 Sur 0 -- -- 64
2017-10-17 01:00:00 21.7 3 Sur 26 Sur 0 -- -- 61
2017-10-17 00:00:00 22.3 14 Sur 27 Sur 0 -- -- 58
2017-10-16 23:00:00 22.6 9 Sudeste 24 Sudeste 0 -- -- 59
2017-10-16 22:00:00 22.6 12 Sudeste 24 Sudeste 0 -- -- 60
2017-10-16 21:00:00 22.6 5 Este 17 Sur 0 -- -- 58
2017-10-16 20:00:00 23.1 4 Sur 21 Sudeste 0 -- -- 56
2017-10-16 19:00:00 24 7 Sur 26 Sur 0 -- -- 53
2017-10-16 18:00:00 24.9 8 Sudeste 22 Sur 0 -- -- 51
2017-10-16 17:00:00 25.3 7 Sur 30 Sur 0 -- -- 49
2017-10-16 16:00:00 26.7 12 Sur 30 Sudoeste 0 -- -- 43
2017-10-16 15:00:00 27.2 15 Sur 35 Sur 0 -- -- 38
2017-10-16 14:00:00 27.1 15 Sur 32 Sudeste 0 -- -- 36
2017-10-16 13:00:00 27.2 18 Sur 32 Sudeste 0 -- -- 33
2017-10-16 12:00:00 25.5 10 Sudeste 21 Sudeste 0 -- -- 32
2017-10-16 11:00:00 23.8 8 Sudeste 18 Este 0 -- -- 34
2017-10-16 10:00:00 17.7 6 Este 13 Este 0 -- -- 48
2017-10-16 09:00:00 14.2 0 Calma 7 Noroeste 0 -- -- 54
2017-10-16 08:00:00 13.3 0 Calma 9 Noroeste 0 -- -- 56
2017-10-16 07:00:00 12.1 4 Noroeste 8 Oeste 0 -- -- 62
2017-10-16 06:00:00 12 3 Sudeste 7 Sudoeste 0 -- -- 64
2017-10-16 05:00:00 11.9 3 Sudeste 9 Sudeste 0 -- -- 62
2017-10-16 04:00:00 12.7 0 Calma 7 Este 0 -- -- 60
2017-10-16 03:00:00 14.1 3 Sudoeste 4 Nordeste 0 -- -- 55
2017-10-16 02:00:00 16.4 0 Calma 5 Norte 0 -- -- 48
2017-10-16 01:00:00 18.9 4 Nordeste 13 Este 0 -- -- 41
2017-10-16 00:00:00 20.2 2 Nordeste 20 Este 0 -- -- 38
2017-10-15 23:00:00 20 3 Este 12 Este 0 -- -- 40
2017-10-15 22:00:00 21.6 6 Este 10 Este 0 -- -- 37
2017-10-15 21:00:00 24.1 3 Nordeste 12 Sur 0 -- -- 34
2017-10-15 20:00:00 29 8 Sur 27 Sur 0 -- -- 27
2017-10-15 19:00:00 31.8 10 Sur 35 Sur 0 -- -- 21
2017-10-15 18:00:00 33.1 18 Sur 35 Sudoeste 0 -- -- 19
2017-10-15 17:00:00 33.8 18 Sur 38 Sur 0 -- -- 18
2017-10-15 16:00:00 34 22 Sur 40 Sudoeste 0 -- -- 18
2017-10-15 15:00:00 33.8 19 Sudeste 41 Sur 0 -- -- 18
2017-10-15 14:00:00 33.3 15 Sur 37 Sur 0 -- -- 19
2017-10-15 13:00:00 31.9 15 Sudeste 34 Sudeste 0 -- -- 21
2017-10-15 12:00:00 30.2 8 Sudeste 24 Sudeste 0 -- -- 25
2017-10-15 11:00:00 24.2 0 Calma 4 Norte 0 -- -- 39
2017-10-15 10:00:00 17.1 0 Calma 4 Sudoeste 0 -- -- 55
2017-10-15 09:00:00 14.5 3 Sur 9 Sudeste 0 -- -- 60
2017-10-15 08:00:00 14.9 2 Este 5 Este 0 -- -- 59
2017-10-15 07:00:00 16.3 3 Sudeste 6 Este 0 -- -- 55
2017-10-15 06:00:00 17.7 5 Este 8 Este 0 -- -- 52
2017-10-15 05:00:00 18.5 4 Este 6 Nordeste 0 -- -- 49
2017-10-15 04:00:00 19.1 0 Calma 6 Sudeste 0 -- -- 47
2017-10-15 03:00:00 19.2 3 Este 9 Este 0 -- -- 48
2017-10-15 02:00:00 19.4 5 Sudeste 8 Este 0 -- -- 47
2017-10-15 01:00:00 20.2 3 Este 8 Este 0 -- -- 45
2017-10-15 00:00:00 20.4 4 Este 6 Este 0 -- -- 43
2017-10-14 23:00:00 21.3 3 Norte 8 Nordeste 0 -- -- 42
2017-10-14 22:00:00 22.3 3 Este 7 Norte 0 -- -- 38
2017-10-14 21:00:00 25 2 Sudeste 6 Norte 0 -- -- 33
2017-10-14 20:00:00 28.2 0 Calma 13 Oeste 0 -- -- 27
2017-10-14 19:00:00 31.1 8 Oeste 21 Oeste 0 -- -- 22
2017-10-14 18:00:00 33.1 10 Oeste 20 Oeste 0 -- -- 19
2017-10-14 17:00:00 34.6 9 Sudoeste 25 Sudoeste 0 -- -- 18
2017-10-14 16:00:00 35.9 7 Sudoeste 19 Sudoeste 0 -- -- 16
2017-10-14 15:00:00 35.2 8 Sur 19 Sudoeste 0 -- -- 17
2017-10-14 14:00:00 33 4 Norte 16 Oeste 0 -- -- 22
2017-10-14 13:00:00 30.9 4 Noroeste 8 Norte 0 -- -- 25
2017-10-14 12:00:00 27.1 0 Calma 6 Sudeste 0 -- -- 36
2017-10-14 11:00:00 21.9 3 Nordeste 6 Sudeste 0 -- -- 50
2017-10-14 10:00:00 18.4 4 Sur 9 Este 0 -- -- 61
2017-10-14 09:00:00 17.2 6 Sudeste 9 Sudeste 0 -- -- 63
2017-10-14 08:00:00 16.4 3 Sudeste 8 Sur 0 -- -- 65
2017-10-14 07:00:00 16.7 2 Este 9 Sur 0 -- -- 64
2017-10-14 06:00:00 16.7 4 Sur 9 Este 0 -- -- 63
2017-10-14 05:00:00 17.7 6 Este 14 Noroeste 0 -- -- 59
2017-10-14 04:00:00 16.9 2 Nordeste 8 Sur 0 -- -- 62
2017-10-14 03:00:00 16.6 5 Este 7 Este 0 -- -- 63
2017-10-14 02:00:00 16.6 4 Sudeste 6 Este 0 -- -- 63
2017-10-14 01:00:00 17 4 Este 6 Este 0 -- -- 62
2017-10-14 00:00:00 18.2 2 Este 6 Este 0 -- -- 57
2017-10-13 23:00:00 19.3 2 Este 6 Este 0 -- -- 54
2017-10-13 22:00:00 20.5 3 Este 8 Este 0 -- -- 52
2017-10-13 21:00:00 23.7 6 Sur 9 Oeste 0 -- -- 43
2017-10-13 20:00:00 27.6 4 Oeste 17 Noroeste 0 -- -- 36
2017-10-13 19:00:00 31.2 9 Oeste 21 Noroeste 0 -- -- 28
2017-10-13 18:00:00 32.2 13 Oeste 27 Oeste 0 -- -- 25
2017-10-13 17:00:00 32.3 11 Noroeste 20 Noroeste 0 -- -- 26
2017-10-13 16:00:00 31.5 12 Noroeste 23 Oeste 0 -- -- 27
2017-10-13 15:00:00 31.7 4 Sudoeste 18 Sudoeste 0 -- -- 26
2017-10-13 14:00:00 30.2 11 Sur 22 Sur 0 -- -- 28
2017-10-13 13:00:00 29.4 11 Sudoeste 26 Sudoeste 0 -- -- 29
2017-10-13 12:00:00 27.2 12 Sudoeste 21 Sudoeste 0 -- -- 31
2017-10-13 11:00:00 20.1 2 Noroeste 4 Nordeste 0 -- -- 57
2017-10-13 10:00:00 14.1 0 Calma 5 Sudeste 0 -- -- 79
2017-10-13 09:00:00 10.9 2 Sudeste 4 Nordeste 0 -- -- 86
2017-10-13 08:00:00 10.9 2 Este 7 Sudeste 0 -- -- 84
2017-10-13 07:00:00 11.4 3 Sudeste 9 Sudeste 0 -- -- 83
2017-10-13 06:00:00 11.8 3 Sudeste 6 Este 0 -- -- 82
2017-10-13 05:00:00 12.2 3 Sudeste 8 Este 0 -- -- 81
2017-10-13 04:00:00 12.2 3 Este 5 Este 0 -- -- 78
2017-10-13 03:00:00 13.3 3 Sudeste 4 Este 0 -- -- 75
2017-10-13 02:00:00 14.2 2 Este 5 Sudeste 0 -- -- 68
2017-10-13 01:00:00 15.7 0 Calma 5 Nordeste 0 -- -- 65
2017-10-13 00:00:00 16.9 0 Calma 7 Nordeste 0 -- -- 62
2017-10-12 23:00:00 18.6 0 Calma 6 Nordeste 0 -- -- 57
2017-10-12 22:00:00 20.5 0 Calma 5 Nordeste 0 -- -- 51
2017-10-12 21:00:00 23.6 3 Norte 12 Sur 0 -- -- 44
2017-10-12 20:00:00 27.5 7 Sur 22 Sur 0 -- -- 36
2017-10-12 19:00:00 30.2 12 Sur 30 Sur 0 -- -- 31
2017-10-12 18:00:00 31.5 19 Sur 33 Sur 0 -- -- 27
2017-10-12 17:00:00 31.9 18 Sur 37 Sudoeste 0 -- -- 27
2017-10-12 16:00:00 31.9 18 Sudoeste 35 Sur 0 -- -- 29
2017-10-12 15:00:00 31.5 19 Sudoeste 31 Sur 0 -- -- 29
2017-10-12 14:00:00 30.8 15 Sur 26 Sur 0 -- -- 32
2017-10-12 13:00:00 29.2 14 Sur 26 Sudoeste 0 -- -- 35
2017-10-12 12:00:00 27.7 12 Sudeste 22 Sudeste 0 -- -- 38
2017-10-12 11:00:00 25.7 12 Sudeste 19 Sur 0 -- -- 40
2017-10-12 10:00:00 18 0 Calma 6 Sudoeste 0 -- -- 57
2017-10-12 09:00:00 15.6 0 Calma 9 Sur 0 -- -- 58
2017-10-12 08:00:00 15.3 0 Calma 7 Sur 0 -- -- 58
2017-10-12 07:00:00 14.6 3 Este 11 Sur 0 -- -- 59
2017-10-12 06:00:00 14.2 5 Sudeste 9 Sur 0 -- -- 58
2017-10-12 05:00:00 13.7 4 Sudeste 8 Sur 0 -- -- 60
2017-10-12 04:00:00 14.2 0 Calma 6 Sudeste 0 -- -- 57
2017-10-12 03:00:00 15.2 4 Sudeste 6 Sur 0 -- -- 53
2017-10-12 02:00:00 16 3 Nordeste 6 Este 0 -- -- 51
2017-10-12 01:00:00 17.8 4 Este 7 Nordeste 0 -- -- 46
2017-10-12 00:00:00 18.9 3 Sudeste 6 Nordeste 0 -- -- 42
2017-10-11 23:00:00 20.6 4 Nordeste 8 Sur 0 -- -- 38
2017-10-11 22:00:00 22.5 2 Sudeste 13 Norte 0 -- -- 33
2017-10-11 21:00:00 25.8 8 Norte 17 Sudeste 0 -- -- 28
2017-10-11 20:00:00 29 4 Sur 16 Sur 0 -- -- 25
2017-10-11 19:00:00 31.4 5 Sur 12 Sur 0 -- -- 20
2017-10-11 18:00:00 33.2 7 Sudoeste 17 Sudoeste 0 -- -- 18
2017-10-11 17:00:00 33.1 3 Nordeste 17 Noroeste 0 -- -- 18
2017-10-11 16:00:00 32.7 7 Oeste 14 Sudoeste 0 -- -- 19
2017-10-11 15:00:00 31.8 5 Oeste 22 Oeste 0 -- -- 21
2017-10-11 14:00:00 30.9 8 Sudeste 13 Sudoeste 0 -- -- 23
2017-10-11 13:00:00 29.4 5 Oeste 10 Oeste 0 -- -- 27
2017-10-11 12:00:00 27.1 3 Noroeste 5 Sudoeste 0 -- -- 28
2017-10-11 11:00:00 21.8 0 Calma 5 Este 0 -- -- 42
2017-10-11 10:00:00 16.2 4 Sudeste 8 Nordeste 0 -- -- 58
2017-10-11 09:00:00 10.5 6 Este 8 Sudeste 0 -- -- 73
2017-10-11 08:00:00 10.7 4 Este 8 Este 0 -- -- 71
2017-10-11 07:00:00 10.6 5 Este 7 Este 0 -- -- 70
2017-10-11 06:00:00 10.4 3 Sudeste 5 Sudeste 0 -- -- 70
2017-10-11 05:00:00 11.9 4 Este 7 Nordeste 0 -- -- 65
2017-10-11 04:00:00 12.1 5 Este 8 Este 0 -- -- 67
2017-10-11 03:00:00 12.6 4 Este 5 Sudeste 0 -- -- 65
2017-10-11 02:00:00 12.8 4 Sudeste 6 Sudeste 0 -- -- 63
2017-10-11 01:00:00 13.8 4 Este 6 Sudeste 0 -- -- 61
2017-10-11 00:00:00 15.3 3 Este 6 Este 0 -- -- 56
2017-10-10 23:00:00 16.2 3 Nordeste 6 Norte 0 -- -- 52
2017-10-10 22:00:00 18.2 0 Calma 8 Norte 0 -- -- 46
2017-10-10 21:00:00 21.4 3 Nordeste 10 Sudoeste 0 -- -- 40
2017-10-10 20:00:00 26.4 8 Sudoeste 22 Sur 0 -- -- 30
2017-10-10 19:00:00 29.5 13 Sudoeste 22 Sudoeste 0 -- -- 28
2017-10-10 18:00:00 30.9 9 Sudoeste 23 Sur 0 -- -- 23
2017-10-10 17:00:00 31.7 16 Sur 26 Sudoeste 0 -- -- 23
2017-10-10 16:00:00 31.9 12 Sudoeste 23 Sur 0 -- -- 23
2017-10-10 15:00:00 32 10 Sur 26 Sudoeste 0 -- -- 22
2017-10-10 14:00:00 31.5 11 Sur 21 Sudoeste 0 -- -- 22
2017-10-10 13:00:00 30.6 10 Sur 19 Sudeste 0 -- -- 22
2017-10-10 12:00:00 27.2 2 Norte 6 Sudeste 0 -- -- 28
2017-10-10 11:00:00 21.7 0 Calma 7 Sur 0 -- -- 38
2017-10-10 10:00:00 14.8 3 Este 6 Norte 0 -- -- 58
2017-10-10 09:00:00 11.6 3 Este 9 Este 0 -- -- 66
2017-10-10 08:00:00 12 3 Este 6 Este 0 -- -- 65
2017-10-10 07:00:00 12.7 3 Este 6 Sudeste 0 -- -- 64
2017-10-10 06:00:00 12.4 4 Sudeste 6 Sudeste 0 -- -- 68
2017-10-10 05:00:00 10.9 3 Este 5 Este 0 -- -- 71
2017-10-10 04:00:00 12.1 2 Este 5 Sudeste 0 -- -- 66
2017-10-10 03:00:00 13 3 Este 6 Este 0 -- -- 61
2017-10-10 02:00:00 13.9 3 Este 6 Este 0 -- -- 58
2017-10-10 01:00:00 14.7 6 Este 8 Sudeste 0 -- -- 51
2017-10-10 00:00:00 16.6 4 Sudeste 6 Sudeste 0 -- -- 46
2017-10-09 23:00:00 17.9 3 Sudeste 10 Nordeste 0 -- -- 41
2017-10-09 22:00:00 20.3 4 Nordeste 11 Sudeste 0 -- -- 35
2017-10-09 21:00:00 22.2 3 Este 7 Sur 0 -- -- 31
2017-10-09 20:00:00 27.2 3 Noroeste 14 Oeste 0 -- -- 24
2017-10-09 19:00:00 29.6 8 Noroeste 21 Oeste 0 -- -- 21
2017-10-09 18:00:00 30.8 10 Oeste 26 Noroeste 0 -- -- 21
2017-10-09 17:00:00 32 12 Sudoeste 22 Sudoeste 0 -- -- 21
2017-10-09 16:00:00 32.1 12 Oeste 32 Sudoeste 0 -- -- 19
2017-10-09 15:00:00 31.9 13 Sudoeste 27 Sudoeste 0 -- -- 20
2017-10-09 14:00:00 30.9 9 Oeste 22 Oeste 0 -- -- 21
2017-10-09 13:00:00 30.3 7 Oeste 16 Oeste 0 -- -- 23
2017-10-09 12:00:00 27.5 4 Oeste 7 Sudoeste 0 -- -- 30
2017-10-09 11:00:00 21.1 0 Calma 4 Noroeste 0 -- -- 47
2017-10-09 10:00:00 15 0 Calma 6 Sudeste 0 -- -- 65
2017-10-09 09:00:00 11 4 Sudeste 10 Este 0 -- -- 78
2017-10-09 08:00:00 9.7 3 Nordeste 7 Sudeste 0 -- -- 80
2017-10-09 07:00:00 9.8 0 Calma 4 Este 0 -- -- 80
2017-10-09 06:00:00 10.5 0 Calma 7 Sudeste 0 -- -- 75
2017-10-09 05:00:00 12.3 2 Sudeste 8 Este 0 -- -- 70
2017-10-09 04:00:00 11.9 0 Calma 4 Este 0 -- -- 70
2017-10-09 03:00:00 12.6 2 Nordeste 5 Este 0 -- -- 67
2017-10-09 02:00:00 13.4 0 Calma 5 Este 0 -- -- 63
2017-10-09 01:00:00 15.4 4 Este 8 Este 0 -- -- 59
2017-10-09 00:00:00 16.1 2 Este 6 Sudeste 0 -- -- 55
2017-10-08 23:00:00 18.3 2 Este 8 Este 0 -- -- 49
2017-10-08 22:00:00 20 4 Nordeste 5 Nordeste 0 -- -- 45
2017-10-08 21:00:00 23.8 0 Calma 8 Oeste 0 -- -- 36
2017-10-08 20:00:00 27.9 5 Noroeste 17 Norte 0 -- -- 30
2017-10-08 19:00:00 30.1 10 Norte 18 Nordeste 0 -- -- 27
2017-10-08 18:00:00 30.7 12 Norte 24 Oeste 0 -- -- 27
2017-10-08 17:00:00 31.7 9 Noroeste 20 Oeste 0 -- -- 27
2017-10-08 16:00:00 31.1 12 Noroeste 24 Oeste 0 -- -- 28
2017-10-08 15:00:00 30.9 14 Sudoeste 22 Sudoeste 0 -- -- 31
2017-10-08 14:00:00 29.9 10 Sudoeste 20 Oeste 0 -- -- 34
2017-10-08 13:00:00 28.1 7 Oeste 13 Oeste 0 -- -- 36
2017-10-08 12:00:00 26.4 3 Sur 9 Sudoeste 0 -- -- 42
2017-10-08 11:00:00 22.5 0 Calma 4 Este 0 -- -- 53
2017-10-08 10:00:00 16.3 2 Nordeste 5 Sudeste 0 -- -- 73
2017-10-08 09:00:00 11.9 5 Este 7 Este 0 -- -- 88
2017-10-08 08:00:00 12.5 3 Este 6 Este 0 -- -- 86
2017-10-08 07:00:00 12.5 2 Este 8 Sudeste 0 -- -- 87
2017-10-08 06:00:00 13 2 Este 5 Nordeste 0 -- -- 83
2017-10-08 05:00:00 13.3 3 Este 6 Este 0 -- -- 82
2017-10-08 04:00:00 13.7 3 Sudeste 5 Nordeste 0 -- -- 77
2017-10-08 03:00:00 14.5 3 Sudeste 6 Nordeste 0 -- -- 74
2017-10-08 02:00:00 15.3 2 Este 8 Norte 0 -- -- 70
2017-10-08 01:00:00 16.4 3 Nordeste 7 Sur 0 -- -- 68
2017-10-08 00:00:00 17.5 3 Este 6 Sur 0 -- -- 63
2017-10-07 23:00:00 19.5 0 Calma 3 Norte 0 -- -- 53
2017-10-07 22:00:00 21.9 2 Norte 12 Sur 0 -- -- 49
2017-10-07 21:00:00 25.4 5 Sur 13 Sudoeste 0 -- -- 40
2017-10-07 20:00:00 28.5 5 Nordeste 25 Sudoeste 0 -- -- 36
2017-10-07 19:00:00 31.7 13 Sur 33 Sur 0 -- -- 29
2017-10-07 18:00:00 33 16 Sudoeste 35 Sur 0 -- -- 26
2017-10-07 17:00:00 33.5 6 Sudoeste 23 Oeste 0 -- -- 23
2017-10-07 16:00:00 34.4 9 Sudoeste 27 Oeste 0 -- -- 21
2017-10-07 15:00:00 34.9 6 Sur 22 Sudoeste 0 -- -- 19
2017-10-07 14:00:00 33.1 10 Sudoeste 19 Sudoeste 0 -- -- 22
2017-10-07 13:00:00 31.6 9 Oeste 17 Oeste 0 -- -- 25
2017-10-07 12:00:00 28.8 7 Noroeste 11 Noroeste 0 -- -- 30
2017-10-07 11:00:00 23.7 0 Calma 8 Oeste 0 -- -- 39
2017-10-07 10:00:00 16.3 0 Calma 5 Este 0 -- -- 62
2017-10-07 09:00:00 11.3 2 Este 4 Sudeste 0 -- -- 76
2017-10-07 08:00:00 11.5 0 Calma 4 Nordeste 0 -- -- 73
2017-10-07 07:00:00 12.5 0 Calma 4 Sudeste 0 -- -- 70
2017-10-07 06:00:00 13.3 2 Este 5 Sudeste 0 -- -- 67
2017-10-07 05:00:00 13.8 4 Este 5 Sudeste 0 -- -- 66
2017-10-07 04:00:00 14.2 0 Calma 8 Este 0 -- -- 63
2017-10-07 03:00:00 15.3 6 Este 8 Nordeste 0 -- -- 60
2017-10-07 02:00:00 15.5 3 Este 4 Nordeste 0 -- -- 58
2017-10-07 01:00:00 16.6 3 Este 5 Este 0 -- -- 55
2017-10-07 00:00:00 18 0 Calma 5 Nordeste 0 -- -- 50
2017-10-06 23:00:00 20.4 2 Este 6 Nordeste 0 -- -- 44
2017-10-06 22:00:00 23.5 0 Calma 10 Norte 0 -- -- 38
2017-10-06 21:00:00 27.8 2 Noroeste 23 Sur 0 -- -- 30
2017-10-06 20:00:00 31.1 8 Oeste 24 Oeste 0 -- -- 24
2017-10-06 19:00:00 33.1 14 Oeste 26 Oeste 0 -- -- 22
2017-10-06 18:00:00 34.4 12 Oeste 23 Oeste 0 -- -- 21
2017-10-06 17:00:00 34.7 10 Oeste 21 Oeste 0 -- -- 21
2017-10-06 16:00:00 34 9 Oeste 26 Oeste 0 -- -- 22
2017-10-06 15:00:00 33.6 12 Noroeste 26 Noroeste 0 -- -- 22
2017-10-06 14:00:00 32.9 11 Oeste 22 Sudoeste 0 -- -- 25
2017-10-06 13:00:00 32 7 Sudoeste 14 Oeste 0 -- -- 28
2017-10-06 12:00:00 28.9 7 Oeste 12 Oeste 0 -- -- 35
2017-10-06 11:00:00 24.2 0 Calma 4 Sudoeste 0 -- -- 48
2017-10-06 10:00:00 19.4 2 Este 5 Este 0 -- -- 62
2017-10-06 09:00:00 13.9 5 Este 6 Este 0 -- -- 81
2017-10-06 08:00:00 13.9 3 Sudeste 6 Sudeste 0 -- -- 77
2017-10-06 07:00:00 14.2 2 Este 6 Este 0 -- -- 76
2017-10-06 06:00:00 14.1 5 Este 7 Nordeste 0 -- -- 77
2017-10-06 05:00:00 13.9 4 Sur 9 Sudeste 0 -- -- 75
2017-10-06 04:00:00 15 3 Sudeste 9 Nordeste 0 -- -- 72
2017-10-06 03:00:00 15.7 5 Este 10 Este 0 -- -- 68
2017-10-06 02:00:00 16.5 0 Calma 5 Sur 0 -- -- 65
2017-10-06 01:00:00 18.3 2 Sudeste 6 Este 0 -- -- 60
2017-10-06 00:00:00 19.9 5 Nordeste 7 Este 0 -- -- 53
2017-10-05 23:00:00 22.3 5 Este 12 Norte 0 -- -- 46
2017-10-05 22:00:00 24.3 6 Norte 12 Norte 0 -- -- 41
2017-10-05 21:00:00 25.5 2 Oeste 11 Nordeste 0 -- -- 37
2017-10-05 20:00:00 30.4 6 Nordeste 18 Nordeste 0 -- -- 28
2017-10-05 19:00:00 32.4 9 Nordeste 23 Nordeste 0 -- -- 27
2017-10-05 18:00:00 33 15 Norte 23 Nordeste 0 -- -- 25
2017-10-05 17:00:00 33.1 10 Nordeste 27 Norte 0 -- -- 26
2017-10-05 16:00:00 32.8 11 Nordeste 22 Norte 0 -- -- 28
2017-10-05 15:00:00 32.6 6 Este 21 Este 0 -- -- 28
2017-10-05 14:00:00 31.3 6 Este 22 Este 0 -- -- 31
2017-10-05 13:00:00 30.2 6 Sur 12 Sudoeste 0 -- -- 36
2017-10-05 12:00:00 27.2 3 Norte 8 Noroeste 0 -- -- 45
2017-10-05 11:00:00 23 2 Oeste 6 Sudeste 0 -- -- 57
2017-10-05 10:00:00 18.2 2 Sudeste 6 Nordeste 0 -- -- 73
2017-10-05 09:00:00 13.9 3 Sudeste 4 Sudeste 0 -- -- 86
2017-10-05 08:00:00 14.2 3 Este 6 Sudeste 0 -- -- 86
2017-10-05 07:00:00 14.8 4 Sudeste 8 Sudeste 0 -- -- 83
2017-10-05 06:00:00 14.8 4 Sudeste 8 Sudeste 0 -- -- 83
2017-10-05 05:00:00 15.7 2 Este 6 Este 0 -- -- 79
2017-10-05 04:00:00 16.3 0 Calma 6 Sudeste 0 -- -- 77
2017-10-05 03:00:00 17.3 3 Nordeste 5 Nordeste 0 -- -- 72
2017-10-05 02:00:00 18 4 Nordeste 7 Nordeste 0 -- -- 70
2017-10-05 01:00:00 19.4 4 Nordeste 6 Este 0 -- -- 66
2017-10-05 00:00:00 21.1 4 Este 6 Nordeste 0 -- -- 61
2017-10-04 23:00:00 24.4 4 Sudoeste 10 Sudoeste 0 -- -- 52
2017-10-04 22:00:00 27 7 Sudoeste 17 Sudoeste 0 -- -- 45
2017-10-04 21:00:00 28.9 5 Sudoeste 15 Noroeste 0 -- -- 39
2017-10-04 20:00:00 30.6 7 Oeste 15 Oeste 0 -- -- 35
2017-10-04 19:00:00 32.2 9 Sudoeste 25 Sudoeste 0 -- -- 33
2017-10-04 18:00:00 33.7 11 Oeste 24 Oeste 0 -- -- 30
2017-10-04 17:00:00 33.4 10 Oeste 22 Sudoeste 0 -- -- 30
2017-10-04 16:00:00 33.1 8 Oeste 18 Sudoeste 0 -- -- 31
2017-10-04 15:00:00 32.7 7 Sudoeste 15 Sudoeste 0 -- -- 32
2017-10-04 14:00:00 30.9 6 Sudoeste 26 Oeste 0 -- -- 35
2017-10-04 13:00:00 29 5 Noroeste 21 Oeste 0 -- -- 38
2017-10-04 12:00:00 26.9 5 Norte 12 Norte 0 -- -- 45
2017-10-04 11:00:00 24.3 2 Norte 5 Noroeste 0 -- -- 53
2017-10-04 10:00:00 18.6 3 Sur 4 Sur 0 -- -- 70
2017-10-04 09:00:00 14.3 3 Este 5 Este 0 -- -- 84
2017-10-04 08:00:00 13.6 0 Calma 5 Nordeste 0 -- -- 85
2017-10-04 07:00:00 14 0 Calma 4 Nordeste 0 -- -- 83
2017-10-04 06:00:00 15 2 Este 6 Este 0 -- -- 78
2017-10-04 05:00:00 15.2 2 Este 4 Sudeste 0 -- -- 79
2017-10-04 04:00:00 15.7 0 Calma 4 Nordeste 0 -- -- 74
2017-10-04 03:00:00 17.1 2 Nordeste 5 Nordeste 0 -- -- 70
2017-10-04 02:00:00 17.8 0 Calma 5 Nordeste 0 -- -- 67
2017-10-04 01:00:00 19 0 Calma 6 Nordeste 0 -- -- 61
2017-10-04 00:00:00 20.8 3 Norte 6 Nordeste 0 -- -- 57
2017-10-03 23:00:00 22.4 0 Calma 6 Nordeste 0 -- -- 52
2017-10-03 22:00:00 25.2 3 Nordeste 10 Este 0 -- -- 46
2017-10-03 21:00:00 29.2 5 Sur 16 Noroeste 0 -- -- 37
2017-10-03 20:00:00 31.2 8 Noroeste 19 Oeste 0 -- -- 34
2017-10-03 19:00:00 33.4 14 Oeste 26 Noroeste 0 -- -- 30
2017-10-03 18:00:00 34.4 8 Oeste 20 Sudeste 0 -- -- 29
2017-10-03 17:00:00 33.9 8 Nordeste 19 Nordeste 0 -- -- 28
2017-10-03 16:00:00 34.7 7 Este 19 Sur 0 -- -- 28
2017-10-03 15:00:00 33.5 10 Sudeste 19 Sudeste 0 -- -- 30
2017-10-03 14:00:00 32.6 6 Sudoeste 18 Sur 0 -- -- 33
2017-10-03 13:00:00 30.7 6 Sudoeste 13 Sudoeste 0 -- -- 37
2017-10-03 12:00:00 27.8 4 Noroeste 11 Noroeste 0 -- -- 43
2017-10-03 11:00:00 24.3 0 Calma 4 Oeste 0 -- -- 51
2017-10-03 10:00:00 19.4 0 Calma 6 Este 0 -- -- 61
2017-10-03 09:00:00 14 2 Este 5 Sudeste 0 -- -- 82
2017-10-03 08:00:00 13.3 0 Calma 3 Sur 0 -- -- 80
2017-10-03 07:00:00 13.7 0 Calma 5 Este 0 -- -- 79
2017-10-03 06:00:00 14 3 Este 4 Este 0 -- -- 77
2017-10-03 05:00:00 15.2 3 Este 5 Sudeste 0 -- -- 71
2017-10-03 04:00:00 16 3 Este 5 Este 0 -- -- 69
2017-10-03 03:00:00 16.3 2 Este 4 Nordeste 0 -- -- 66
2017-10-03 02:00:00 17.7 0 Calma 6 Este 0 -- -- 60
2017-10-03 01:00:00 18.8 0 Calma 8 Noroeste 0 -- -- 58
2017-10-03 00:00:00 19.8 4 Sudoeste 7 Oeste 0 -- -- 54
2017-10-02 23:00:00 23 4 Nordeste 6 Nordeste 0 -- -- 46
2017-10-02 22:00:00 25.3 3 Nordeste 13 Norte 0 -- -- 40
2017-10-02 21:00:00 27.9 6 Nordeste 17 Este 0 -- -- 35
2017-10-02 20:00:00 31.3 8 Nordeste 24 Nordeste 0 -- -- 29
2017-10-02 19:00:00 32.5 15 Este 31 Este 0 -- -- 27
2017-10-02 18:00:00 33.2 12 Nordeste 28 Este 0 -- -- 26
2017-10-02 17:00:00 33.4 16 Nordeste 35 Este 0 -- -- 26
2017-10-02 16:00:00 33.4 14 Nordeste 34 Este 0 -- -- 26
2017-10-02 15:00:00 32.7 20 Norte 32 Norte 0 -- -- 28
2017-10-02 14:00:00 32.2 14 Este 28 Este 0 -- -- 29
2017-10-02 13:00:00 31.5 13 Sudeste 28 Sudeste 0 -- -- 30
2017-10-02 12:00:00 29.8 17 Este 30 Este 0 -- -- 33
2017-10-02 11:00:00 27.3 5 Este 11 Nordeste 0 -- -- 37
2017-10-02 10:00:00 20.2 0 Calma 5 Sur 0 -- -- 56
2017-10-02 09:00:00 15.7 3 Nordeste 7 Nordeste 0 -- -- 67
2017-10-02 08:00:00 15.4 2 Nordeste 6 Este 0 -- -- 67
2017-10-02 07:00:00 16.1 4 Este 6 Este 0 -- -- 65
2017-10-02 06:00:00 16.5 2 Este 6 Este 0 -- -- 61
2017-10-02 05:00:00 17 4 Este 7 Sudeste 0 -- -- 60
2017-10-02 04:00:00 17.5 2 Este 5 Este 0 -- -- 58
2017-10-02 03:00:00 18.4 6 Este 9 Sudeste 0 -- -- 56
2017-10-02 02:00:00 19.6 4 Este 10 Sudeste 0 -- -- 52
2017-10-02 01:00:00 20.5 4 Sudeste 8 Sudeste 0 -- -- 48
2017-10-02 00:00:00 23.6 3 Nordeste 17 Norte 0 -- -- 41
2017-10-01 23:00:00 27.2 12 Nordeste 27 Nordeste 0 -- -- 34
2017-10-01 22:00:00 28.1 16 Nordeste 29 Nordeste 0 -- -- 32
2017-10-01 21:00:00 28.7 14 Nordeste 30 Nordeste 0 -- -- 30
2017-10-01 20:00:00 29.8 17 Nordeste 33 Nordeste 0 -- -- 28
2017-10-01 19:00:00 30.8 17 Nordeste 30 Nordeste 0 -- -- 27
2017-10-01 18:00:00 32 14 Norte 25 Norte 0 -- -- 23
2017-10-01 17:00:00 32.5 13 Norte 27 Nordeste 0 -- -- 24
2017-10-01 16:00:00 32.5 9 Norte 22 Noroeste 0 -- -- 25
2017-10-01 15:00:00 31.7 11 Noroeste 24 Noroeste 0 -- -- 27
2017-10-01 14:00:00 31.1 8 Noroeste 18 Norte 0 -- -- 29
2017-10-01 13:00:00 30.1 5 Oeste 15 Sudoeste 0 -- -- 29
2017-10-01 12:00:00 28 4 Oeste 10 Oeste 0 -- -- 32
2017-10-01 11:00:00 22.6 0 Calma 5 Sudoeste 0 -- -- 47
2017-10-01 10:00:00 15.7 0 Calma 4 Nordeste 0 -- -- 66
2017-10-01 09:00:00 10.8 3 Este 4 Este 0 -- -- 81
2017-10-01 08:00:00 10.4 0 Calma 3 Este 0 -- -- 78
2017-10-01 07:00:00 10.9 0 Calma 3 Este 0 -- -- 76
2017-10-01 06:00:00 11.4 3 Este 4 Sudeste 0 -- -- 75
2017-10-01 05:00:00 11.9 2 Sudeste 4 Sur 0 -- -- 72
2017-10-01 04:00:00 13 0 Calma 4 Sur 0 -- -- 68
2017-10-01 03:00:00 14.2 2 Sudeste 8 Este 0 -- -- 63
2017-10-01 02:00:00 14.8 3 Este 8 Nordeste 0 -- -- 61
2017-10-01 01:00:00 17.1 0 Calma 8 Este 0 -- -- 52
2017-10-01 00:00:00 20.2 4 Noroeste 12 Noroeste 0 -- -- 43
2017-09-30 23:00:00 23 3 Noroeste 23 Norte 0 -- -- 37
2017-09-30 22:00:00 23.9 14 Norte 28 Noroeste 0 -- -- 35
2017-09-30 21:00:00 25.1 13 Noroeste 24 Noroeste 0 -- -- 39
2017-09-30 20:00:00 26.3 6 Noroeste 22 Noroeste 0 -- -- 42
2017-09-30 19:00:00 28.1 11 Noroeste 24 Norte 0 -- -- 37
2017-09-30 18:00:00 29.2 14 Oeste 23 Oeste 0 -- -- 31
2017-09-30 17:00:00 29.7 11 Noroeste 24 Oeste 0 -- -- 30
2017-09-30 16:00:00 29.3 15 Oeste 24 Oeste 0 -- -- 33
2017-09-30 15:00:00 28.8 15 Oeste 27 Oeste 0 -- -- 35
2017-09-30 14:00:00 28.4 13 Oeste 20 Oeste 0 -- -- 40
2017-09-30 13:00:00 27.6 8 Sudoeste 16 Oeste 0 -- -- 40
2017-09-30 12:00:00 24.5 9 Oeste 14 Oeste 0 -- -- 48
2017-09-30 11:00:00 21.3 3 Oeste 5 Oeste 0 -- -- 55
2017-09-30 10:00:00 17.2 0 Calma 3 Sudeste 0 -- -- 67
2017-09-30 09:00:00 12.5 0 Calma 3 Sur 0 -- -- 82
2017-09-30 08:00:00 12.2 0 Calma 3 Este 0 -- -- 79
2017-09-30 07:00:00 12.9 2 Este 5 Sudeste 0 -- -- 76
2017-09-30 06:00:00 13.6 0 Calma 6 Nordeste 0 -- -- 74
2017-09-30 05:00:00 14.3 2 Nordeste 8 Sudoeste 0 -- -- 71
2017-09-30 04:00:00 15.1 3 Sudeste 6 Este 0 -- -- 69
2017-09-30 03:00:00 16.5 2 Sur 7 Este 0 -- -- 63
2017-09-30 02:00:00 18.1 3 Este 9 Sur 0 -- -- 59
2017-09-30 01:00:00 21.5 4 Sur 13 Sudoeste 0 -- -- 48
2017-09-30 00:00:00 24.4 4 Oeste 18 Norte 0 -- -- 41
2017-09-29 23:00:00 23 3 Nordeste 9 Nordeste 0 -- -- 45
2017-09-29 22:00:00 26.2 3 Sur 10 Noroeste 0 -- -- 37
2017-09-29 21:00:00 28.2 8 Noroeste 20 Noroeste 0 -- -- 34
2017-09-29 20:00:00 29.6 10 Noroeste 21 Norte 0 -- -- 32
2017-09-29 19:00:00 30.6 8 Oeste 15 Oeste 0 -- -- 31
2017-09-29 18:00:00 32.2 7 Sudoeste 20 Oeste 0 -- -- 30
2017-09-29 17:00:00 31.8 7 Oeste 20 Sudoeste 0 -- -- 30
2017-09-29 16:00:00 31.8 12 Noroeste 24 Oeste 0 -- -- 30
2017-09-29 15:00:00 30.8 6 Oeste 20 Noroeste 0 -- -- 31
2017-09-29 14:00:00 30.2 7 Sur 18 Oeste 0 -- -- 34
2017-09-29 13:00:00 27.8 2 Sudoeste 11 Oeste 0 -- -- 38
2017-09-29 12:00:00 24.5 2 Oeste 6 Sur 0 -- -- 47
2017-09-29 11:00:00 20 0 Calma 4 Sudoeste 0 -- -- 61
2017-09-29 10:00:00 16.2 0 Calma 5 Sudeste 0 -- -- 74
2017-09-29 09:00:00 13.5 3 Sudeste 4 Sur 0 -- -- 81
2017-09-29 08:00:00 13.5 3 Este 5 Sudeste 0 -- -- 81
2017-09-29 07:00:00 13 0 Calma 8 Sudeste 0 -- -- 80
2017-09-29 06:00:00 13.4 2 Sudeste 5 Sudeste 0 -- -- 80
2017-09-29 05:00:00 14.3 3 Sudeste 5 Este 0 -- -- 77
2017-09-29 04:00:00 14.6 2 Sudeste 4 Este 0 -- -- 75
2017-09-29 03:00:00 15.5 4 Nordeste 5 Nordeste 0 -- -- 74
2017-09-29 02:00:00 16.4 2 Nordeste 6 Nordeste 0 -- -- 68
2017-09-29 01:00:00 17.3 0 Calma 3 Norte 0 -- -- 64
2017-09-29 00:00:00 19 2 Sudoeste 6 Nordeste 0 -- -- 57
2017-09-28 23:00:00 20.7 3 Norte 11 Oeste 0 -- -- 53
2017-09-28 22:00:00 22.2 3 Nordeste 7 Nordeste 0 -- -- 48
2017-09-28 21:00:00 24.8 3 Norte 5 Noroeste 0 -- -- 43
2017-09-28 20:00:00 29 5 Sur 14 Sur 0 -- -- 33
2017-09-28 19:00:00 30.4 5 Sur 12 Sudeste 0 -- -- 30
2017-09-28 18:00:00 29.3 3 Sudeste 11 Sudeste 0 -- -- 33
2017-09-28 17:00:00 29.5 5 Este 17 Sudeste 0 -- -- 33
2017-09-28 16:00:00 31.4 8 Sudoeste 20 Sudoeste 0 -- -- 31
2017-09-28 15:00:00 29.3 7 Este 17 Este 0 -- -- 34
2017-09-28 14:00:00 29.2 8 Sudeste 18 Este 0 -- -- 36
2017-09-28 13:00:00 27.9 9 Oeste 16 Noroeste 0 -- -- 42
2017-09-28 12:00:00 26.2 5 Sudoeste 15 Sudeste 0 -- -- 46
2017-09-28 11:00:00 23.6 5 Este 10 Nordeste 0 -- -- 53
2017-09-28 10:00:00 20.7 0 Calma 4 Nordeste 0 -- -- 63
2017-09-28 09:00:00 17.6 0 Calma 5 Sudeste 0 -- -- 74
2017-09-28 08:00:00 17.7 4 Sudeste 4 Este 0 -- -- 74
2017-09-28 07:00:00 17.3 0 Calma 5 Sur 0 -- -- 74
2017-09-28 06:00:00 17.4 2 Nordeste 4 Sur 0 -- -- 73
2017-09-28 05:00:00 17.9 0 Calma 9 Sudeste 0 -- -- 72
2017-09-28 04:00:00 18.5 3 Sur 9 Sur 0 -- -- 69
2017-09-28 03:00:00 19 3 Este 6 Sudeste 0 -- -- 68
2017-09-28 02:00:00 19.3 0 Calma 5 Este 0 -- -- 65
2017-09-28 01:00:00 19.6 3 Este 5 Este 0 -- -- 65
2017-09-28 00:00:00 20.1 0 Calma 2 Norte 0 -- -- 63
2017-09-27 23:00:00 20.7 0 Calma 2 Noroeste 0 -- -- 59
2017-09-27 22:00:00 21.6 0 Calma 5 Oeste 0 -- -- 57
2017-09-27 21:00:00 22.9 3 Oeste 10 Sur 0 -- -- 52
2017-09-27 20:00:00 24.7 6 Sudoeste 15 Sur 0 -- -- 45
2017-09-27 19:00:00 28.1 10 Sur 17 Sur 0 -- -- 35
2017-09-27 18:00:00 27.5 6 Sudeste 18 Este 0 -- -- 31
2017-09-27 17:00:00 26.5 6 Sudeste 19 Sudeste 0 -- -- 36
2017-09-27 16:00:00 26.7 10 Sur 18 Sudoeste 0 -- -- 37
2017-09-27 15:00:00 25.8 6 Sur 13 Sudeste 0 -- -- 35
2017-09-27 14:00:00 22.8 9 Sur 22 Sur 0 -- -- 49
2017-09-27 13:00:00 23.2 9 Sur 26 Sur 0 -- -- 46
2017-09-27 12:00:00 21.8 14 Sur 25 Sur 0 -- -- 53
2017-09-27 11:00:00 20.7 9 Sur 17 Sur 0 -- -- 46
2017-09-27 10:00:00 15.4 0 Calma 6 Sudeste 0 -- -- 53
2017-09-27 09:00:00 12.2 0 Calma 4 Sudeste 0 -- -- 62
2017-09-27 08:00:00 11.8 2 Norte 5 Sur 0 -- -- 62
2017-09-27 07:00:00 12.3 3 Nordeste 6 Este 0 -- -- 59
2017-09-27 06:00:00 12.3 0 Calma 8 Sur 0 -- -- 59
2017-09-27 05:00:00 11.7 3 Nordeste 8 Sur 0 -- -- 60
2017-09-27 04:00:00 12.1 2 Sudeste 4 Este 0 -- -- 57
2017-09-27 03:00:00 12.4 3 Este 6 Este 0 -- -- 55
2017-09-27 02:00:00 12.3 3 Este 6 Este 0 -- -- 54
2017-09-27 01:00:00 13.4 0 Calma 7 Norte 0 -- -- 51
2017-09-27 00:00:00 15.5 2 Sur 6 Este 0 -- -- 44
2017-09-26 23:00:00 17.4 4 Sudeste 10 Este 0 -- -- 41
2017-09-26 22:00:00 19.6 3 Nordeste 10 Este 0 -- -- 34
2017-09-26 21:00:00 22.9 4 Oeste 12 Noroeste 0 -- -- 30
2017-09-26 20:00:00 27.6 7 Noroeste 20 Noroeste 0 -- -- 23
2017-09-26 19:00:00 28.9 13 Noroeste 24 Noroeste 0 -- -- 23
2017-09-26 18:00:00 30.1 12 Noroeste 25 Oeste 0 -- -- 22
2017-09-26 17:00:00 30.2 12 Oeste 26 Oeste 0 -- -- 23
2017-09-26 16:00:00 30.2 14 Oeste 25 Oeste 0 -- -- 25
2017-09-26 15:00:00 29.9 8 Noroeste 17 Oeste 0 -- -- 23
2017-09-26 14:00:00 28.6 12 Noroeste 21 Noroeste 0 -- -- 25
2017-09-26 13:00:00 26.9 9 Oeste 21 Oeste 0 -- -- 30
2017-09-26 12:00:00 22.1 6 Oeste 12 Sur 0 -- -- 44
2017-09-26 11:00:00 16.9 5 Noroeste 9 Oeste 0 -- -- 61
2017-09-26 10:00:00 11.6 0 Calma 3 Sur 0 -- -- 77
2017-09-26 09:00:00 6.3 0 Calma 5 Nordeste 0 -- -- 86
2017-09-26 08:00:00 5.8 0 Calma 5 Este 0 -- -- 86
2017-09-26 07:00:00 5.8 2 Sudeste 5 Nordeste 0 -- -- 81
2017-09-26 06:00:00 7.1 0 Calma 3 Sur 0 -- -- 76
2017-09-26 05:00:00 8.8 2 Este 6 Sudeste 0 -- -- 69
2017-09-26 04:00:00 10 2 Sur 5 Este 0 -- -- 63
2017-09-26 03:00:00 12.5 2 Nordeste 8 Norte 0 -- -- 57
2017-09-26 02:00:00 16.9 3 Sur 18 Norte 0 -- -- 51
2017-09-26 01:00:00 19 4 Noroeste 14 Norte 0 -- -- 42
2017-09-26 00:00:00 20 5 Sur 13 Norte 0 -- -- 36
2017-09-25 23:00:00 22.2 8 Noroeste 24 Noroeste 0 -- -- 31
2017-09-25 22:00:00 22.5 8 Norte 19 Noroeste 0 -- -- 32
2017-09-25 21:00:00 24.5 11 Noroeste 24 Noroeste 0 -- -- 29
2017-09-25 20:00:00 26.4 7 Noroeste 25 Norte 0 -- -- 26
2017-09-25 19:00:00 28.2 14 Oeste 28 Noroeste 0 -- -- 23
2017-09-25 18:00:00 28.7 12 Norte 27 Norte 0 -- -- 25
2017-09-25 17:00:00 28.8 14 Noroeste 28 Noroeste 0 -- -- 24
2017-09-25 16:00:00 28.8 12 Norte 25 Noroeste 0 -- -- 27
2017-09-25 15:00:00 27.8 13 Noroeste 30 Noroeste 0 -- -- 26
2017-09-25 14:00:00 26.6 13 Noroeste 24 Norte 0 -- -- 30
2017-09-25 13:00:00 25.8 12 Noroeste 22 Noroeste 0 -- -- 35
2017-09-25 12:00:00 24.3 8 Oeste 13 Oeste 0 -- -- 42
2017-09-25 11:00:00 21 5 Oeste 9 Oeste 0 -- -- 56
2017-09-25 10:00:00 16.1 0 Calma 3 Noroeste 0 -- -- 58
2017-09-25 09:00:00 10.8 2 Sudeste 5 Sur 0 -- -- 71
2017-09-25 08:00:00 10 3 Sudeste 5 Nordeste 0 -- -- 71
2017-09-25 07:00:00 10.1 0 Calma 5 Sur 0 -- -- 71
2017-09-25 06:00:00 10.3 0 Calma 4 Sur 0 -- -- 70
2017-09-25 05:00:00 10.8 0 Calma 3 Este 0 -- -- 68
2017-09-25 04:00:00 12.1 2 Sudeste 6 Este 0 -- -- 63
2017-09-25 03:00:00 13.6 0 Calma 4 Nordeste 0 -- -- 58
2017-09-25 02:00:00 16 2 Sudeste 9 Sudeste 0 -- -- 53
2017-09-25 01:00:00 20.2 2 Sudeste 15 Oeste 0 -- -- 42
2017-09-25 00:00:00 22.3 9 Sudoeste 22 Noroeste 0 -- -- 38
2017-09-24 23:00:00 23.7 5 Oeste 20 Noroeste 0 -- -- 38
2017-09-24 22:00:00 23.1 4 Sudoeste 14 Oeste 0 -- -- 39
2017-09-24 21:00:00 25.2 5 Oeste 12 Oeste 0 -- -- 34
2017-09-24 20:00:00 28.9 9 Oeste 18 Noroeste 0 -- -- 28
2017-09-24 19:00:00 30.5 10 Oeste 22 Oeste 0 -- -- 27
2017-09-24 18:00:00 31.1 8 Oeste 25 Oeste 0 -- -- 27
2017-09-24 17:00:00 31.2 14 Oeste 24 Oeste 0 -- -- 28
2017-09-24 16:00:00 31.3 14 Noroeste 25 Oeste 0 -- -- 28
2017-09-24 15:00:00 31.6 11 Sudoeste 24 Sudoeste 0 -- -- 27
2017-09-24 14:00:00 30.6 7 Sur 22 Sudoeste 0 -- -- 30
2017-09-24 13:00:00 28.8 8 Sudoeste 14 Sudoeste 0 -- -- 32
2017-09-24 12:00:00 26.9 6 Sudoeste 10 Sudoeste 0 -- -- 36
2017-09-24 11:00:00 23 2 Oeste 7 Sudeste 0 -- -- 46
2017-09-24 10:00:00 17.6 4 Este 6 Este 0 -- -- 61
2017-09-24 09:00:00 11.3 6 Este 9 Este 0 -- -- 84
2017-09-24 08:00:00 9.9 3 Sur 6 Sur 0 -- -- 87
2017-09-24 07:00:00 11 0 Calma 4 Este 0 -- -- 80
2017-09-24 06:00:00 11.4 3 Sudeste 6 Sudeste 0 -- -- 79
2017-09-24 05:00:00 11.6 0 Calma 4 Este 0 -- -- 77
2017-09-24 04:00:00 12.4 0 Calma 4 Nordeste 0 -- -- 72
2017-09-24 03:00:00 13.4 0 Calma 5 Nordeste 0 -- -- 68
2017-09-24 02:00:00 14.4 2 Sudeste 5 Sudeste 0 -- -- 63
2017-09-24 01:00:00 16.2 4 Este 10 Nordeste 0 -- -- 55
2017-09-24 00:00:00 17.6 3 Este 10 Este 0 -- -- 51
2017-09-23 23:00:00 19.1 3 Este 7 Sur 0 -- -- 47
2017-09-23 22:00:00 22.2 0 Calma 5 Sudoeste 0 -- -- 40
2017-09-23 21:00:00 26.3 4 Noroeste 22 Oeste 0 -- -- 31
2017-09-23 20:00:00 28.8 12 Noroeste 23 Noroeste 0 -- -- 29
2017-09-23 19:00:00 30.7 10 Oeste 26 Noroeste 0 -- -- 27
2017-09-23 18:00:00 31.3 9 Noroeste 18 Noroeste 0 -- -- 27
2017-09-23 17:00:00 31.3 6 Sudoeste 18 Noroeste 0 -- -- 27
2017-09-23 16:00:00 30.8 8 Oeste 21 Oeste 0 -- -- 28
2017-09-23 15:00:00 29.7 9 Noroeste 24 Noroeste 0 -- -- 30
2017-09-23 14:00:00 29.3 6 Sudeste 14 Oeste 0 -- -- 31
2017-09-23 13:00:00 27.6 7 Noroeste 15 Sudoeste 0 -- -- 34
2017-09-23 12:00:00 26.2 2 Sudoeste 8 Norte 0 -- -- 38
2017-09-23 11:00:00 22.8 2 Sudoeste 4 Sudoeste 0 -- -- 45
2017-09-23 10:00:00 17.7 2 Este 5 Sudeste 0 -- -- 59
2017-09-23 09:00:00 11.4 4 Este 5 Este 0 -- -- 79
2017-09-23 08:00:00 10.2 0 Calma 8 Este 0 -- -- 79
2017-09-23 07:00:00 10.4 0 Calma 5 Sudeste 0 -- -- 78
2017-09-23 06:00:00 11.3 2 Este 5 Este 0 -- -- 73
2017-09-23 05:00:00 11.6 2 Este 5 Nordeste 0 -- -- 72
2017-09-23 04:00:00 12.5 2 Este 4 Este 0 -- -- 68
2017-09-23 03:00:00 13.1 3 Este 5 Este 0 -- -- 66
2017-09-23 02:00:00 13.6 0 Calma 5 Sudeste 0 -- -- 64
2017-09-23 01:00:00 14.7 0 Calma 5 Nordeste 0 -- -- 59
2017-09-23 00:00:00 16 2 Sur 4 Este 0 -- -- 55
2017-09-22 23:00:00 18.4 4 Este 6 Este 0 -- -- 49
2017-09-22 22:00:00 20.1 2 Este 5 Sudoeste 0 -- -- 43
2017-09-22 21:00:00 24.6 5 Oeste 12 Noroeste 0 -- -- 34
2017-09-22 20:00:00 27.3 8 Oeste 17 Oeste 0 -- -- 31
2017-09-22 19:00:00 28.9 8 Oeste 24 Sudoeste 0 -- -- 27
2017-09-22 18:00:00 29.9 6 Oeste 21 Oeste 0 -- -- 26
2017-09-22 17:00:00 29.8 12 Oeste 21 Noroeste 0 -- -- 27
2017-09-22 16:00:00 29.5 9 Oeste 26 Oeste 0 -- -- 29
2017-09-22 15:00:00 28.8 10 Oeste 22 Noroeste 0 -- -- 31
2017-09-22 14:00:00 27.6 10 Oeste 18 Sudoeste 0 -- -- 36
2017-09-22 13:00:00 24.9 9 Oeste 17 Oeste 0 -- -- 44
2017-09-22 12:00:00 21.1 7 Oeste 14 Sudoeste 0 -- -- 63
2017-09-22 11:00:00 17.5 5 Oeste 10 Oeste 0 -- -- 78
2017-09-22 10:00:00 14.1 5 Oeste 11 Oeste 0 -- -- 91
2017-09-22 09:00:00 10.5 0 Calma 6 Este 0 -- -- 93
2017-09-22 08:00:00 10 5 Este 6 Este 0 -- -- 93
2017-09-22 07:00:00 10.5 2 Sudoeste 4 Nordeste 0 -- -- 91
2017-09-22 06:00:00 11.7 0 Calma 4 Nordeste 0 -- -- 86
2017-09-22 05:00:00 12.9 3 Este 9 Sudoeste 0 -- -- 83
2017-09-22 04:00:00 13.7 2 Oeste 3 Oeste 0 -- -- 80
2017-09-22 03:00:00 16.1 2 Sudeste 9 Este 0 -- -- 71
2017-09-22 02:00:00 19 0 Calma 15 Oeste 0 -- -- 65
2017-09-22 01:00:00 20.5 7 Noroeste 18 Noroeste 0 -- -- 60
2017-09-22 00:00:00 22.2 8 Oeste 26 Noroeste 0 -- -- 51
2017-09-21 23:00:00 23.3 14 Norte 24 Norte 0 -- -- 46
2017-09-21 22:00:00 23 4 Noroeste 13 Norte 0 -- -- 40
2017-09-21 21:00:00 24.9 8 Noroeste 18 Norte 0 -- -- 37
2017-09-21 20:00:00 26.9 10 Noroeste 29 Oeste 0 -- -- 32
2017-09-21 19:00:00 28.5 12 Noroeste 27 Oeste 0 -- -- 28
2017-09-21 18:00:00 27.8 16 Oeste 26 Noroeste 0 -- -- 30
2017-09-21 17:00:00 29.6 14 Noroeste 25 Noroeste 0 -- -- 27
2017-09-21 16:00:00 28.9 14 Oeste 27 Oeste 0 -- -- 29
2017-09-21 15:00:00 29.2 15 Oeste 28 Oeste 0 -- -- 30
2017-09-21 14:00:00 28.6 15 Oeste 25 Oeste 0 -- -- 32
2017-09-21 13:00:00 27.8 11 Sudoeste 20 Oeste 0 -- -- 33
2017-09-21 12:00:00 26.1 10 Oeste 16 Oeste 0 -- -- 37
2017-09-21 11:00:00 22.1 3 Oeste 5 Oeste 0 -- -- 47
2017-09-21 10:00:00 17.3 3 Este 5 Este 0 -- -- 61
2017-09-21 09:00:00 10.8 2 Sudeste 5 Este 0 -- -- 85
2017-09-21 08:00:00 10 0 Calma 5 Sudeste 0 -- -- 82
2017-09-21 07:00:00 11 2 Este 6 Sudeste 0 -- -- 81
2017-09-21 06:00:00 11.5 4 Sudeste 6 Sudeste 0 -- -- 78
2017-09-21 05:00:00 12.9 5 Este 6 Este 0 -- -- 73
2017-09-21 04:00:00 12.4 2 Este 6 Sudeste 0 -- -- 74
2017-09-21 03:00:00 14.1 3 Este 5 Este 0 -- -- 68
2017-09-21 02:00:00 14.4 4 Este 5 Este 0 -- -- 66
2017-09-21 01:00:00 15.5 3 Este 5 Nordeste 0 -- -- 61
2017-09-21 00:00:00 17.3 3 Nordeste 5 Norte 0 -- -- 56
2017-09-20 23:00:00 19.1 0 Calma 10 Noroeste 0 -- -- 52
2017-09-20 22:00:00 21.8 0 Calma 8 Sur 0 -- -- 43
2017-09-20 21:00:00 25.3 3 Noroeste 19 Sur 0 -- -- 36
2017-09-20 20:00:00 28.2 16 Sudoeste 25 Sudoeste 0 -- -- 31
2017-09-20 19:00:00 31.2 11 Sur 21 Sudoeste 0 -- -- 26
2017-09-20 18:00:00 31.8 10 Sur 22 Sudoeste 0 -- -- 24
2017-09-20 17:00:00 32 9 Sur 21 Sur 0 -- -- 25
2017-09-20 16:00:00 31.9 12 Sur 21 Sur 0 -- -- 26
2017-09-20 15:00:00 31.6 8 Sudoeste 26 Sudoeste 0 -- -- 25
2017-09-20 14:00:00 30.7 9 Sur 20 Oeste 0 -- -- 26
2017-09-20 13:00:00 29.2 9 Oeste 18 Oeste 0 -- -- 28
2017-09-20 12:00:00 27.2 4 Noroeste 9 Oeste 0 -- -- 32
2017-09-20 11:00:00 22.6 0 Calma 3 Noroeste 0 -- -- 44
2017-09-20 10:00:00 16.5 2 Este 5 Sudeste 0 -- -- 61
2017-09-20 09:00:00 10.1 4 Este 5 Este 0 -- -- 85
2017-09-20 08:00:00 9.5 3 Sur 8 Nordeste 0 -- -- 82
2017-09-20 07:00:00 10 2 Sudeste 6 Sudeste 0 -- -- 79
2017-09-20 06:00:00 11.2 4 Este 5 Este 0 -- -- 76
2017-09-20 05:00:00 11.5 3 Este 5 Este 0 -- -- 73
2017-09-20 04:00:00 11.8 0 Calma -- -- 0 -- -- 69
2017-09-20 03:00:00 12.5 3 Nordeste 5 Nordeste 0 -- -- 67
2017-09-20 02:00:00 12.7 2 Nordeste 4 Nordeste 0 -- -- 65
2017-09-20 01:00:00 14.1 3 Este 6 Oeste 0 -- -- 60
2017-09-20 00:00:00 16.2 4 Este 7 Sudeste 0 -- -- 54